createdAt,value
2019-04-30T00:01:59.991Z,9.76
2019-04-30T00:04:37.289Z,9.60
2019-04-30T00:07:02.617Z,9.34
2019-04-30T00:09:32.641Z,9.25
2019-04-30T00:12:01.524Z,9.26
2019-04-30T00:14:37.313Z,9.10
2019-04-30T00:17:00.574Z,8.92
2019-04-30T00:19:29.535Z,8.65
2019-04-30T00:22:00.423Z,8.54
2019-04-30T00:24:28.602Z,8.40
2019-04-30T00:26:57.373Z,8.36
2019-04-30T00:29:30.165Z,8.06
2019-04-30T00:31:57.701Z,7.85
2019-04-30T00:34:30.901Z,7.91
2019-04-30T00:36:57.756Z,7.99
2019-04-30T00:39:27.264Z,8.00
2019-04-30T00:41:56.725Z,8.25
2019-04-30T00:44:28.276Z,8.28
2019-04-30T00:46:55.988Z,8.26
2019-04-30T00:49:26.624Z,8.10
2019-04-30T00:51:58.150Z,8.11
2019-04-30T00:54:28.014Z,8.05
2019-04-30T00:56:57.530Z,7.91
2019-04-30T00:59:26.266Z,7.87
2019-04-30T01:02:12.753Z,7.67
2019-04-30T01:04:46.867Z,7.61
2019-04-30T01:07:16.044Z,7.68
2019-04-30T01:09:49.544Z,7.47
2019-04-30T01:12:17.365Z,7.41
2019-04-30T01:14:45.598Z,7.31
2019-04-30T01:17:14.339Z,7.25
2019-04-30T01:19:45.999Z,7.19
2019-04-30T01:22:13.556Z,7.05
2019-04-30T01:24:42.425Z,7.29
2019-04-30T01:27:11.727Z,7.25
2019-04-30T01:29:44.020Z,7.33
2019-04-30T01:32:17.549Z,7.36
2019-04-30T01:34:44.254Z,7.37
2019-04-30T01:37:12.597Z,7.34
2019-04-30T01:39:41.313Z,7.30
2019-04-30T01:42:11.461Z,7.12
2019-04-30T01:44:43.397Z,6.69
2019-04-30T01:47:10.689Z,6.31
2019-04-30T01:49:42.675Z,6.02
2019-04-30T01:52:09.818Z,6.07
2019-04-30T01:54:39.203Z,5.78
2019-04-30T01:57:26.070Z,5.67
2019-04-30T02:00:29.331Z,5.56
2019-04-30T02:02:59.252Z,5.25
2019-04-30T02:05:28.740Z,5.27
2019-04-30T02:07:58.485Z,5.08
2019-04-30T02:10:28.560Z,5.13
2019-04-30T02:12:59.101Z,5.31
2019-04-30T02:15:29.220Z,5.21
2019-04-30T02:17:58.760Z,5.16
2019-04-30T02:20:28.665Z,4.95
2019-04-30T02:22:58.620Z,5.06
2019-04-30T02:25:29.402Z,5.06
2019-04-30T02:27:59.098Z,5.04
2019-04-30T02:30:30.987Z,5.10
2019-04-30T02:33:00.644Z,5.28
2019-04-30T02:36:00.421Z,5.37
2019-04-30T02:38:32.843Z,5.51
2019-04-30T02:41:03.080Z,6.01
2019-04-30T02:43:33.661Z,6.52
2019-04-30T02:46:04.337Z,6.75
2019-04-30T02:48:36.153Z,7.04
2019-04-30T02:51:10.118Z,6.86
2019-04-30T02:54:23.920Z,6.85
2019-04-30T02:57:11.808Z,6.95
2019-04-30T02:59:59.705Z,7.15
2019-04-30T03:02:29.278Z,7.33
2019-04-30T03:05:00.284Z,7.37
2019-04-30T03:07:29.494Z,7.27
2019-04-30T03:09:59.878Z,7.47
2019-04-30T03:12:33.119Z,7.49
2019-04-30T03:15:00.446Z,7.45
2019-04-30T03:17:50.650Z,7.28
2019-04-30T03:20:39.448Z,7.24
2019-04-30T03:23:09.842Z,7.09
2019-04-30T03:25:40.353Z,7.14
2019-04-30T03:28:09.754Z,7.20
2019-04-30T03:30:41.928Z,7.36
2019-04-30T03:33:12.829Z,7.41
2019-04-30T03:35:42.240Z,7.30
2019-04-30T03:38:09.893Z,7.46
2019-04-30T03:40:40.460Z,7.45
2019-04-30T03:43:10.326Z,7.37
2019-04-30T03:45:40.187Z,7.40
2019-04-30T03:48:10.158Z,7.44
2019-04-30T03:50:51.352Z,7.53
2019-04-30T03:53:10.458Z,7.55
2019-04-30T03:55:40.094Z,7.58
2019-04-30T03:58:09.336Z,7.57
2019-04-30T04:00:46.704Z,7.49
2019-04-30T04:03:15.489Z,7.43
2019-04-30T04:05:51.959Z,7.38
2019-04-30T04:08:25.960Z,7.35
2019-04-30T04:11:00.530Z,7.35
2019-04-30T04:13:30.011Z,7.16
2019-04-30T04:15:59.968Z,7.00
2019-04-30T04:18:30.182Z,6.94
2019-04-30T04:21:08.911Z,6.87
2019-04-30T04:23:32.767Z,6.72
2019-04-30T04:25:59.972Z,6.66
2019-04-30T04:28:29.957Z,6.62
2019-04-30T04:31:00.153Z,6.77
2019-04-30T04:33:29.623Z,6.75
2019-04-30T04:35:59.746Z,6.63
2019-04-30T04:38:30.382Z,6.44
2019-04-30T04:41:02.580Z,6.41
2019-04-30T04:43:30.068Z,6.23
2019-04-30T04:45:59.423Z,6.04
2019-04-30T04:48:29.782Z,5.97
2019-04-30T04:50:59.990Z,5.87
2019-04-30T04:53:30.369Z,5.66
2019-04-30T04:55:59.993Z,5.65
2019-04-30T04:58:30.249Z,5.89
2019-04-30T05:00:59.594Z,5.99
2019-04-30T05:03:32.414Z,6.01
2019-04-30T05:06:02.698Z,6.13
2019-04-30T05:08:31.738Z,6.17
2019-04-30T05:11:00.439Z,6.13
2019-04-30T05:13:29.204Z,6.19
2019-04-30T05:15:59.368Z,6.39
2019-04-30T05:18:29.833Z,6.57
2019-04-30T05:20:59.110Z,6.65
2019-04-30T05:23:29.840Z,6.85
2019-04-30T05:25:59.766Z,7.01
2019-04-30T05:28:30.125Z,7.22
2019-04-30T05:30:59.598Z,7.32
2019-04-30T05:33:28.680Z,7.43
2019-04-30T05:35:59.412Z,7.58
2019-04-30T05:38:31.096Z,7.61
2019-04-30T05:40:59.556Z,7.66
2019-04-30T05:43:28.973Z,7.78
2019-04-30T05:45:58.667Z,7.80
2019-04-30T05:48:28.564Z,7.87
2019-04-30T05:50:59.151Z,8.00
2019-04-30T05:53:28.693Z,8.31
2019-04-30T05:55:59.191Z,8.25
2019-04-30T05:58:30.032Z,8.41
2019-04-30T06:00:59.726Z,8.40
2019-04-30T06:03:32.956Z,8.51
2019-04-30T06:05:59.592Z,8.64
2019-04-30T06:08:33.555Z,8.78
2019-04-30T06:11:09.360Z,8.81
2019-04-30T06:14:12.545Z,8.80
2019-04-30T06:16:41.294Z,8.82
2019-04-30T06:19:10.002Z,8.86
2019-04-30T06:21:39.125Z,8.85
2019-04-30T06:24:08.261Z,9.19
2019-04-30T06:26:39.382Z,9.27
2019-04-30T06:29:09.204Z,9.46
2019-04-30T06:31:40.391Z,9.35
2019-04-30T06:34:08.804Z,9.37
2019-04-30T06:36:39.464Z,9.31
2019-04-30T06:39:08.660Z,9.40
2019-04-30T06:41:39.518Z,9.77
2019-04-30T06:44:09.697Z,9.94
2019-04-30T06:46:39.103Z,9.75
2019-04-30T06:49:09.466Z,9.79
2019-04-30T06:51:38.932Z,9.71
2019-04-30T06:54:08.577Z,9.35
2019-04-30T06:56:38.748Z,9.35
2019-04-30T06:59:09.230Z,9.29
2019-04-30T07:01:39.639Z,9.57
2019-04-30T07:04:10.379Z,9.93
2019-04-30T07:06:43.870Z,9.98
2019-04-30T07:09:33.516Z,10.08
2019-04-30T07:12:27.638Z,9.98
2019-04-30T07:14:53.309Z,10.14
2019-04-30T07:17:33.973Z,10.49
2019-04-30T07:20:02.983Z,10.66
2019-04-30T07:22:40.190Z,11.06
2019-04-30T07:25:03.087Z,11.16
2019-04-30T07:27:32.485Z,11.53
2019-04-30T07:30:01.210Z,11.43
2019-04-30T07:32:29.908Z,11.29
2019-04-30T07:34:59.431Z,11.31
2019-04-30T07:37:29.328Z,11.53
2019-04-30T07:39:59.752Z,11.93
2019-04-30T07:42:29.492Z,12.01
2019-04-30T07:45:00.677Z,12.21
2019-04-30T07:47:29.753Z,11.99
2019-04-30T07:50:00.768Z,11.68
2019-04-30T07:52:34.388Z,11.74
2019-04-30T07:55:06.927Z,11.74
2019-04-30T07:57:35.634Z,11.99
2019-04-30T08:00:10.229Z,12.17
2019-04-30T08:02:46.197Z,12.68
2019-04-30T08:05:42.296Z,12.50
2019-04-30T08:08:20.793Z,12.78
2019-04-30T08:10:41.955Z,13.37
2019-04-30T08:13:15.019Z,13.32
2019-04-30T08:15:42.712Z,13.41
2019-04-30T08:18:11.382Z,13.33
2019-04-30T08:20:40.070Z,13.20
2019-04-30T08:23:20.254Z,12.38
2019-04-30T08:25:39.192Z,12.59
2019-04-30T08:28:09.092Z,12.68
2019-04-30T08:30:39.164Z,12.60
2019-04-30T08:33:09.494Z,12.62
2019-04-30T08:35:39.790Z,12.97
2019-04-30T08:38:10.557Z,13.24
2019-04-30T08:40:47.332Z,13.97
2019-04-30T08:43:09.777Z,14.43
2019-04-30T08:45:38.677Z,14.66
2019-04-30T08:48:09.103Z,14.05
2019-04-30T08:50:39.541Z,14.21
2019-04-30T08:53:10.577Z,13.87
2019-04-30T08:55:44.435Z,14.27
2019-04-30T08:58:16.094Z,14.31
2019-04-30T09:00:45.040Z,14.69
2019-04-30T09:03:19.339Z,15.34
2019-04-30T09:06:04.863Z,16.10
2019-04-30T09:08:34.014Z,15.00
2019-04-30T09:11:02.714Z,15.45
2019-04-30T09:13:31.390Z,14.86
2019-04-30T09:16:00.380Z,15.03
2019-04-30T09:18:29.325Z,16.23
2019-04-30T09:21:05.993Z,15.78
2019-04-30T09:23:42.997Z,15.58
2019-04-30T09:25:58.912Z,16.95
2019-04-30T09:28:29.462Z,16.51
2019-04-30T09:30:58.803Z,15.40
2019-04-30T09:33:29.441Z,15.27
2019-04-30T09:36:01.412Z,15.35
2019-04-30T09:38:30.889Z,16.15
2019-04-30T09:40:59.920Z,16.13
2019-04-30T09:43:28.760Z,16.58
2019-04-30T09:45:59.277Z,18.11
2019-04-30T09:48:30.410Z,17.80
2019-04-30T09:51:00.826Z,16.83
2019-04-30T09:53:30.249Z,17.18
2019-04-30T09:55:59.678Z,18.98
2019-04-30T09:58:29.996Z,18.82
2019-04-30T10:01:00.402Z,16.88
2019-04-30T10:03:31.814Z,16.07
2019-04-30T10:06:03.111Z,17.83
2019-04-30T10:08:32.312Z,17.83
2019-04-30T10:11:10.449Z,18.26
2019-04-30T10:13:39.158Z,19.02
2019-04-30T10:16:39.589Z,20.37
2019-04-30T10:19:10.230Z,20.68
2019-04-30T10:21:39.662Z,20.14
2019-04-30T10:24:15.336Z,20.58
2019-04-30T10:26:41.721Z,20.73
2019-04-30T10:29:10.575Z,19.34
2019-04-30T10:31:39.283Z,18.06
2019-04-30T10:34:09.652Z,18.71
2019-04-30T10:36:41.445Z,18.65
2019-04-30T10:39:10.502Z,18.61
2019-04-30T10:41:39.592Z,18.20
2019-04-30T10:44:08.924Z,19.16
2019-04-30T10:46:37.732Z,17.61
2019-04-30T10:49:06.526Z,18.06
2019-04-30T10:51:35.266Z,18.07
2019-04-30T10:54:04.039Z,18.37
2019-04-30T10:56:33.440Z,18.94
2019-04-30T10:59:02.165Z,18.86
2019-04-30T11:01:30.935Z,20.42
2019-04-30T11:03:59.626Z,19.08
2019-04-30T11:06:28.333Z,19.39
2019-04-30T11:08:57.130Z,20.37
2019-04-30T11:11:26.062Z,20.35
2019-04-30T11:13:54.779Z,19.16
2019-04-30T11:16:23.541Z,20.56
2019-04-30T11:18:52.766Z,20.34
2019-04-30T11:21:22.485Z,19.93
2019-04-30T11:23:52.019Z,19.37
2019-04-30T11:26:21.390Z,21.09
2019-04-30T11:28:50.658Z,21.09
2019-04-30T11:31:44.661Z,21.04
2019-04-30T11:34:13.712Z,20.71
2019-04-30T11:36:42.432Z,20.71
2019-04-30T11:39:18.622Z,19.17
2019-04-30T11:41:47.993Z,18.90
2019-04-30T11:44:28.542Z,20.43
2019-04-30T11:47:25.090Z,20.22
2019-04-30T11:49:54.300Z,19.86
2019-04-30T11:52:23.203Z,19.84
2019-04-30T11:54:54.477Z,19.76
2019-04-30T11:57:22.623Z,19.94
2019-04-30T11:59:51.485Z,19.93
2019-04-30T12:02:24.989Z,21.43
2019-04-30T12:04:53.701Z,19.95
2019-04-30T12:07:31.498Z,21.78
2019-04-30T12:10:11.180Z,21.78
2019-04-30T12:12:39.876Z,22.99
2019-04-30T12:15:09.284Z,22.67
2019-04-30T12:17:38.097Z,23.70
2019-04-30T12:20:08.618Z,24.84
2019-04-30T12:22:39.599Z,23.89
2019-04-30T12:25:11.657Z,21.52
2019-04-30T12:27:40.373Z,20.88
2019-04-30T12:30:10.189Z,20.23
2019-04-30T12:32:39.303Z,20.16
2019-04-30T12:35:09.252Z,20.45
2019-04-30T12:37:39.055Z,21.54
2019-04-30T12:40:10.845Z,21.68
2019-04-30T12:42:39.625Z,21.59
2019-04-30T12:45:09.632Z,21.56
2019-04-30T12:47:42.407Z,21.01
2019-04-30T12:50:16.956Z,21.01
2019-04-30T12:55:50.700Z,20.41
2019-04-30T12:58:20.729Z,21.77
2019-04-30T13:00:49.594Z,22.78
2019-04-30T13:03:18.268Z,21.94
2019-04-30T13:05:47.171Z,21.20
2019-04-30T13:08:16.854Z,22.39
2019-04-30T13:10:46.596Z,22.62
2019-04-30T13:13:16.021Z,22.93
2019-04-30T13:15:45.101Z,20.53
2019-04-30T13:18:13.766Z,21.05
2019-04-30T13:20:42.591Z,22.07
2019-04-30T13:23:11.260Z,24.53
2019-04-30T13:25:50.727Z,23.85
2019-04-30T13:28:14.991Z,23.07
2019-04-30T13:30:43.679Z,23.55
2019-04-30T13:33:24.451Z,24.94
2019-04-30T13:35:53.137Z,23.52
2019-04-30T13:38:30.124Z,24.69
2019-04-30T13:41:15.389Z,24.45
2019-04-30T13:44:02.024Z,24.85
2019-04-30T13:46:30.771Z,24.05
2019-04-30T13:48:59.539Z,22.69
2019-04-30T13:51:28.210Z,23.39
2019-04-30T13:53:56.897Z,24.04
2019-04-30T13:56:25.595Z,23.47
2019-04-30T13:58:54.275Z,23.67
2019-04-30T14:01:22.984Z,24.57
2019-04-30T14:03:59.279Z,25.73
2019-04-30T14:06:29.461Z,23.41
2019-04-30T14:08:59.834Z,23.22
2019-04-30T14:11:28.514Z,24.43
2019-04-30T14:13:57.204Z,23.34
2019-04-30T14:16:25.886Z,24.13
2019-04-30T14:18:54.551Z,22.94
2019-04-30T14:21:34.493Z,22.96
2019-04-30T14:23:53.875Z,24.71
2019-04-30T14:26:22.564Z,24.80
2019-04-30T14:28:51.229Z,23.66
2019-04-30T14:31:20.854Z,24.77
2019-04-30T14:33:49.667Z,23.02
2019-04-30T14:36:19.397Z,23.03
2019-04-30T14:38:48.852Z,23.05
2019-04-30T14:41:18.182Z,22.92
2019-04-30T14:43:52.656Z,22.46
2019-04-30T14:46:41.148Z,22.14
2019-04-30T14:49:31.805Z,22.61
2019-04-30T14:52:01.116Z,23.49
2019-04-30T14:54:50.461Z,24.54
2019-04-30T14:57:30.087Z,23.31
2019-04-30T15:00:32.904Z,23.01
2019-04-30T15:03:09.321Z,22.13
2019-04-30T15:05:40.441Z,21.94
2019-04-30T15:08:08.582Z,21.94
2019-04-30T15:10:37.405Z,23.09
2019-04-30T15:13:06.172Z,23.14
2019-04-30T15:15:35.792Z,23.92
2019-04-30T15:18:05.253Z,23.86
2019-04-30T15:20:33.918Z,23.84
2019-04-30T15:23:27.710Z,24.88
2019-04-30T15:25:56.392Z,24.79
2019-04-30T15:28:32.477Z,22.78
2019-04-30T15:30:55.562Z,21.74
2019-04-30T15:33:42.097Z,22.57
2019-04-30T15:36:10.798Z,22.02
2019-04-30T15:38:57.172Z,22.04
2019-04-30T15:41:26.017Z,22.23
2019-04-30T15:43:54.681Z,22.82
2019-04-30T15:46:23.441Z,22.75
2019-04-30T15:48:52.216Z,22.27
2019-04-30T15:51:20.963Z,22.01
2019-04-30T15:53:49.647Z,22.01
2019-04-30T15:56:19.267Z,21.68
2019-04-30T15:59:08.997Z,22.47
2019-04-30T16:01:38.672Z,22.47
2019-04-30T16:04:10.333Z,23.89
2019-04-30T16:06:39.026Z,26.04
2019-04-30T16:09:10.719Z,23.98
2019-04-30T16:11:49.216Z,24.05
2019-04-30T16:14:24.736Z,24.80
2019-04-30T16:17:15.473Z,24.11
2019-04-30T16:19:44.174Z,24.19
2019-04-30T16:22:12.993Z,24.52
2019-04-30T16:24:41.663Z,25.67
2019-04-30T16:27:10.443Z,25.94
2019-04-30T16:29:40.742Z,24.88
2019-04-30T16:32:09.631Z,24.25
2019-04-30T16:34:39.007Z,23.80
2019-04-30T16:37:07.820Z,24.26
2019-04-30T16:39:36.570Z,23.67
2019-04-30T16:42:05.390Z,22.68
2019-04-30T16:44:34.053Z,22.66
2019-04-30T16:47:12.978Z,22.28
2019-04-30T16:49:33.196Z,22.86
2019-04-30T16:52:01.864Z,22.84
2019-04-30T16:54:30.635Z,22.89
2019-04-30T16:57:04.193Z,21.65
2019-04-30T16:59:35.598Z,21.56
2019-04-30T17:02:04.468Z,20.96
2019-04-30T17:04:39.530Z,20.32
2019-04-30T17:07:15.697Z,20.97
2019-04-30T17:09:54.857Z,20.90
2019-04-30T17:12:39.474Z,21.01
2019-04-30T17:15:20.440Z,19.93
2019-04-30T17:17:49.848Z,18.61
2019-04-30T17:20:20.821Z,18.40
2019-04-30T17:22:49.708Z,18.19
2019-04-30T17:25:19.057Z,18.34
2019-04-30T17:27:47.812Z,18.64
2019-04-30T17:30:19.322Z,18.50
2019-04-30T17:32:49.680Z,17.81
2019-04-30T17:35:19.043Z,17.20
2019-04-30T17:37:47.919Z,16.77
2019-04-30T17:40:19.089Z,16.54
2019-04-30T17:42:47.543Z,16.36
2019-04-30T17:45:16.689Z,16.22
2019-04-30T17:47:45.351Z,16.08
2019-04-30T17:50:14.195Z,15.94
2019-04-30T17:52:42.939Z,16.15
2019-04-30T17:55:11.852Z,16.17
2019-04-30T17:57:40.549Z,15.98
2019-04-30T18:00:18.787Z,15.97
2019-04-30T18:02:41.600Z,15.96
2019-04-30T18:05:11.379Z,15.87
2019-04-30T18:07:40.295Z,15.95
2019-04-30T18:10:11.487Z,15.81
2019-04-30T18:12:40.178Z,15.55
2019-04-30T18:15:15.042Z,15.19
2019-04-30T18:17:46.522Z,14.90
2019-04-30T18:20:30.582Z,14.61
2019-04-30T18:23:09.196Z,14.23
2019-04-30T18:25:45.378Z,13.82
2019-04-30T18:28:14.071Z,13.70
2019-04-30T18:30:42.766Z,13.56
2019-04-30T18:33:11.435Z,13.59
2019-04-30T18:35:40.166Z,13.52
2019-04-30T18:38:09.760Z,13.33
2019-04-30T18:40:39.737Z,13.10
2019-04-30T18:43:08.722Z,12.88
2019-04-30T18:45:39.598Z,12.56
2019-04-30T18:48:09.719Z,12.39
2019-04-30T18:50:38.373Z,12.38
2019-04-30T18:53:13.182Z,12.29
2019-04-30T18:55:41.853Z,12.15
2019-04-30T18:58:10.551Z,12.16
2019-04-30T19:00:41.639Z,12.04
2019-04-30T19:03:10.496Z,11.92
2019-04-30T19:05:41.091Z,11.77
2019-04-30T19:08:16.046Z,11.67
2019-04-30T19:11:08.981Z,11.62
2019-04-30T19:13:59.907Z,11.47
2019-04-30T19:16:49.510Z,11.28
2019-04-30T19:19:36.815Z,11.14
2019-04-30T19:22:05.654Z,11.09
2019-04-30T19:24:34.322Z,10.83
2019-04-30T19:27:02.990Z,10.73
2019-04-30T19:29:31.946Z,10.58
2019-04-30T19:32:00.684Z,10.61
2019-04-30T19:34:31.487Z,10.76
2019-04-30T19:36:59.755Z,11.04
2019-04-30T19:39:29.250Z,10.84
2019-04-30T19:41:58.388Z,10.45
2019-04-30T19:44:29.303Z,10.42
2019-04-30T19:46:58.645Z,10.30
2019-04-30T19:49:27.336Z,10.00
2019-04-30T19:52:07.656Z,9.71
2019-04-30T19:54:26.428Z,9.74
2019-04-30T19:56:55.161Z,9.60
2019-04-30T19:59:23.853Z,9.53
2019-04-30T20:01:52.514Z,9.46
2019-04-30T20:04:32.592Z,9.30
2019-04-30T20:06:51.583Z,9.33
2019-04-30T20:09:20.246Z,9.37
2019-04-30T20:11:49.351Z,9.30
2019-04-30T20:14:18.713Z,9.19
2019-04-30T20:16:48.655Z,8.90
2019-04-30T20:19:17.514Z,8.90
2019-04-30T20:21:53.092Z,8.78
2019-04-30T20:24:16.591Z,8.69
2019-04-30T20:26:45.252Z,8.62
2019-04-30T20:29:13.948Z,8.75
2019-04-30T20:31:42.641Z,8.50
2019-04-30T20:34:11.298Z,8.50
2019-04-30T20:36:39.962Z,8.68
2019-04-30T20:39:20.547Z,8.84
2019-04-30T20:41:53.373Z,8.53
2019-04-30T20:44:22.206Z,8.24
2019-04-30T20:46:50.893Z,8.16
2019-04-30T20:49:19.693Z,8.38
2019-04-30T20:51:55.646Z,8.08
2019-04-30T20:54:19.030Z,8.04
2019-04-30T20:56:48.358Z,8.16
2019-04-30T20:59:19.045Z,8.06
2019-04-30T21:01:49.012Z,8.41
2019-04-30T21:04:20.618Z,8.30
2019-04-30T21:06:49.661Z,8.29
2019-04-30T21:09:18.370Z,8.20
2019-04-30T21:11:48.883Z,8.10
2019-04-30T21:14:19.192Z,7.94
2019-04-30T21:16:47.867Z,8.04
2019-04-30T21:19:16.537Z,8.01
2019-04-30T21:21:45.205Z,8.02
2019-04-30T21:24:13.958Z,7.99
2019-04-30T21:26:42.619Z,8.14
2019-04-30T21:29:15.632Z,8.19
2019-04-30T21:31:55.321Z,8.08
2019-04-30T21:34:37.027Z,7.93
2019-04-30T21:37:05.707Z,7.84
2019-04-30T21:39:34.397Z,7.77
2019-04-30T21:42:03.068Z,7.82
2019-04-30T21:44:31.728Z,7.81
2019-04-30T21:47:00.420Z,7.69
2019-04-30T21:49:29.093Z,7.61
2019-04-30T21:51:57.771Z,7.61
2019-04-30T21:54:28.326Z,7.56
2019-04-30T21:56:56.944Z,7.66
2019-04-30T21:59:25.620Z,7.59
2019-04-30T22:01:54.586Z,7.36
2019-04-30T22:04:23.273Z,7.38
2019-04-30T22:06:52.030Z,7.28
2019-04-30T22:09:21.227Z,7.48
2019-04-30T22:11:49.918Z,7.72
2019-04-30T22:14:18.581Z,7.90
2019-04-30T22:16:49.319Z,8.17
2019-04-30T22:19:17.648Z,8.13
2019-04-30T22:21:46.329Z,8.05
2019-04-30T22:24:15.018Z,8.02
2019-04-30T22:26:43.756Z,8.00
2019-04-30T22:29:12.545Z,8.04
2019-04-30T22:31:41.273Z,8.04
2019-04-30T22:34:09.938Z,7.97
2019-04-30T22:36:42.531Z,8.10
2019-04-30T22:39:31.753Z,8.01
2019-04-30T22:42:20.680Z,7.83
2019-04-30T22:44:49.392Z,7.67
2019-04-30T22:47:18.142Z,7.41
2019-04-30T22:49:46.800Z,7.65
2019-04-30T22:52:15.465Z,7.75
2019-04-30T22:54:44.147Z,7.72
2019-04-30T22:57:12.818Z,7.71
2019-04-30T22:59:49.677Z,7.80
2019-04-30T23:02:19.017Z,7.80
2019-04-30T23:04:48.069Z,7.70
2019-04-30T23:07:16.734Z,7.64
2019-04-30T23:09:45.435Z,7.54
2019-04-30T23:12:14.427Z,7.49
2019-04-30T23:14:43.359Z,7.43
2019-04-30T23:17:12.048Z,7.46
2019-04-30T23:19:40.708Z,7.52
2019-04-30T23:22:09.365Z,7.50
2019-04-30T23:24:38.051Z,7.33
2019-04-30T23:27:06.728Z,7.24
2019-04-30T23:29:35.410Z,7.15
2019-04-30T23:32:04.095Z,7.13
2019-04-30T23:34:32.764Z,7.03
2019-04-30T23:37:01.458Z,6.91
2019-04-30T23:39:30.148Z,6.83
2019-04-30T23:41:58.808Z,6.58
2019-04-30T23:44:27.467Z,6.40
2019-04-30T23:46:56.156Z,6.52
2019-04-30T23:49:24.815Z,6.79
2019-04-30T23:51:53.494Z,6.90
2019-04-30T23:54:22.182Z,6.85
2019-04-30T23:56:50.853Z,6.74
2019-04-30T23:59:19.514Z,6.68
